Darstellungsparameter: Aktuell verwendete Einstellungen:
Skalierung der Graphiken ... ?
xyx+y,   Skalierungsfaktor:      Skalierung: Modus: x, Faktor: 1
Darstellungszeitraum ... ?
Vom - - bis: - -   Zeitraum: 26.12.2020 - 28.12.2020
Min/Max/Avg-Anzeige ... ?
Zeige MMA aktuell
Zeige MMA Monat
Zeige MMA alles
Zeige --A aktuell
Zeige --A Monat
Zeige --A alles
Keine MMA-Anzeige
MMA:
Minimum Maximum Average (ber die Originaldaten)
MMA-Basis: 23.02.2003 - 29.06.2020
Quicknavigation für Darstellung... ?
Tage:      1T, 2T, 3T, 5T -1T -2T -3T -5T +1T +2T +3T +5T
Wochen: 1W, 2W, 3W -1W -2W -3W +1W +2W +3W
Monate: 1M, 3M, 6M -1M -3M -6M +1M +3M +6M
Jahre:    1J, 3J, 5J, 10J -1J -3J -5J -10J +1J +3J +5J +10J
Nutze für die Darstellung ... ?
Originaldaten oder Mittelwerte auf ...
Stundenbasis Tagesbasis Wochenbasis
Monatsbasis Jahresbasis      Datenbasis: Original-Daten
Darstellen als:
Statistik (Auto) Statistik J:M      Darstellung:
Zur Graphik,    zurück zur Übersicht aller Sensoren.
 
Tabellarische Datenbersicht: ?
 
Sensor: Nr:Datum:Temp:Abs-Feuchte:Windchill:Wind:
Aussen-T/F 1 26-12-2020 00:00:00 2.6 C 5.56 g/m*3 2.6 C 0 km/h
2 26-12-2020 00:05:00 2.6 C 5.56 g/m*3 2.6 C 0 km/h
3 26-12-2020 00:10:00 2.6 C 5.56 g/m*3 2.6 C 0 km/h
4 26-12-2020 00:15:00 2.6 C 5.56 g/m*3 2.6 C 0 km/h
5 26-12-2020 00:20:00 2.6 C 5.56 g/m*3 2.6 C 0 km/h
6 26-12-2020 00:25:00 2.6 C 5.56 g/m*3 2.6 C 0 km/h
7 26-12-2020 00:30:00 2.6 C 5.56 g/m*3 2.6 C 0 km/h
8 26-12-2020 00:35:00 2.7 C 5.59 g/m*3 2.7 C 0 km/h
9 26-12-2020 00:40:00 2.7 C 5.59 g/m*3 2.7 C 0 km/h
10 26-12-2020 00:45:00 2.7 C 5.59 g/m*3 2.7 C 0 km/h
11 26-12-2020 00:50:00 2.7 C 5.59 g/m*3 2.7 C 0 km/h
12 26-12-2020 00:55:00 2.7 C 5.59 g/m*3 2.7 C 0 km/h
13 26-12-2020 01:00:00 2.7 C 5.59 g/m*3 2.7 C 1.6 km/h
14 26-12-2020 01:05:00 2.7 C 5.59 g/m*3 2.7 C 1.6 km/h
15 26-12-2020 01:10:00 2.7 C 5.59 g/m*3 2.7 C 0 km/h
16 26-12-2020 01:15:00 2.6 C 5.56 g/m*3 2.6 C 1.6 km/h
17 26-12-2020 01:20:00 2.5 C 5.52 g/m*3 0.71 C 6.4 km/h
18 26-12-2020 01:25:00 2.4 C 5.48 g/m*3 2.4 C 1.6 km/h
19 26-12-2020 01:30:00 2.4 C 5.42 g/m*3 2.4 C 3.2 km/h
20 26-12-2020 01:35:00 2.4 C 5.42 g/m*3 2.4 C 0 km/h
21 26-12-2020 01:40:00 2.4 C 5.42 g/m*3 2.4 C 0 km/h
22 26-12-2020 01:45:00 2.4 C 5.42 g/m*3 2.4 C 3.2 km/h
23 26-12-2020 01:50:00 2.3 C 5.39 g/m*3 0.47 C 6.4 km/h
24 26-12-2020 01:55:00 2.3 C 5.39 g/m*3 -0.07 C 8.1 km/h
25 26-12-2020 02:00:00 2.3 C 5.39 g/m*3 2.3 C 4.8 km/h
Sensor: Nr:Datum:Temp:Abs-Feuchte:Windchill:Wind:
Aussen-T/F 26 26-12-2020 02:05:00 2.3 C 5.39 g/m*3 2.3 C 3.2 km/h
27 26-12-2020 02:10:00 2.3 C 5.39 g/m*3 0.47 C 6.4 km/h
28 26-12-2020 02:15:00 2.3 C 5.39 g/m*3 -0.07 C 8.1 km/h
29 26-12-2020 02:20:00 2.3 C 5.39 g/m*3 0.47 C 6.4 km/h
30 26-12-2020 02:25:00 2.3 C 5.39 g/m*3 2.3 C 4.8 km/h
31 26-12-2020 02:30:00 2.3 C 5.44 g/m*3 -0.07 C 8.1 km/h
32 26-12-2020 02:35:00 2.3 C 5.39 g/m*3 -0.07 C 8.1 km/h
33 26-12-2020 02:40:00 2.3 C 5.39 g/m*3 -0.07 C 8.1 km/h
34 26-12-2020 02:45:00 2.3 C 5.39 g/m*3 -0.87 C 11.3 km/h
35 26-12-2020 02:50:00 2.3 C 5.39 g/m*3 -0.07 C 8.1 km/h
36 26-12-2020 02:55:00 2.3 C 5.39 g/m*3 -0.49 C 9.7 km/h
37 26-12-2020 03:00:00 2.3 C 5.39 g/m*3 2.3 C 4.8 km/h
38 26-12-2020 03:05:00 2.3 C 5.39 g/m*3 2.3 C 4.8 km/h
39 26-12-2020 03:10:00 2.3 C 5.39 g/m*3 2.3 C 4.8 km/h
40 26-12-2020 03:15:00 2.3 C 5.39 g/m*3 2.3 C 4.8 km/h
41 26-12-2020 03:20:00 2.3 C 5.39 g/m*3 -0.07 C 8.1 km/h
42 26-12-2020 03:25:00 2.3 C 5.39 g/m*3 -0.07 C 8.1 km/h
43 26-12-2020 03:30:00 2.3 C 5.39 g/m*3 2.3 C 3.2 km/h
44 26-12-2020 03:35:00 2.3 C 5.39 g/m*3 2.3 C 4.8 km/h
45 26-12-2020 03:40:00 2.2 C 5.35 g/m*3 0.36 C 6.4 km/h
46 26-12-2020 03:45:00 2.3 C 5.39 g/m*3 2.3 C 4.8 km/h
47 26-12-2020 03:50:00 2.2 C 5.35 g/m*3 0.36 C 6.4 km/h
48 26-12-2020 03:55:00 2.2 C 5.35 g/m*3 -0.18 C 8.1 km/h
49 26-12-2020 04:00:00 2.2 C 5.35 g/m*3 2.2 C 4.8 km/h
50 26-12-2020 04:05:00 2.2 C 5.35 g/m*3 2.2 C 4.8 km/h
Sensor: Nr:Datum:Temp:Abs-Feuchte:Windchill:Wind:
Aussen-T/F 51 26-12-2020 04:10:00 2.2 C 5.35 g/m*3 0.36 C 6.4 km/h
52 26-12-2020 04:15:00 2.2 C 5.35 g/m*3 2.2 C 1.6 km/h
53 26-12-2020 04:20:00 2.2 C 5.35 g/m*3 2.2 C 3.2 km/h
54 26-12-2020 04:25:00 2.2 C 5.35 g/m*3 2.2 C 3.2 km/h
55 26-12-2020 04:30:00 2.2 C 5.35 g/m*3 2.2 C 3.2 km/h
56 26-12-2020 04:35:00 2.1 C 5.31 g/m*3 2.1 C 4.8 km/h
57 26-12-2020 04:40:00 2.1 C 5.31 g/m*3 2.1 C 3.2 km/h
58 26-12-2020 04:45:00 2.1 C 5.31 g/m*3 2.1 C 0 km/h
59 26-12-2020 04:50:00 2.1 C 5.31 g/m*3 2.1 C 1.6 km/h
60 26-12-2020 04:55:00 2.1 C 5.31 g/m*3 2.1 C 0 km/h
61 26-12-2020 05:00:00 2.1 C 5.31 g/m*3 2.1 C 0 km/h
62 26-12-2020 05:05:00 2.1 C 5.31 g/m*3 2.1 C 0 km/h
63 26-12-2020 05:10:00 2.1 C 5.31 g/m*3 2.1 C 0 km/h
64 26-12-2020 05:15:00 2.1 C 5.31 g/m*3 2.1 C 0 km/h
65 26-12-2020 05:20:00 2.1 C 5.31 g/m*3 2.1 C 0 km/h
66 26-12-2020 05:25:00 2.1 C 5.31 g/m*3 2.1 C 0 km/h
67 26-12-2020 05:30:00 2 C 5.28 g/m*3 2 C 0 km/h
68 26-12-2020 05:35:00 2 C 5.28 g/m*3 2 C 0 km/h
69 26-12-2020 05:40:00 1.9 C 5.24 g/m*3 1.9 C 0 km/h
70 26-12-2020 05:45:00 1.8 C 5.21 g/m*3 1.8 C 0 km/h
71 26-12-2020 05:50:00 1.7 C 5.17 g/m*3 1.7 C 0 km/h
72 26-12-2020 05:55:00 1.7 C 5.17 g/m*3 1.7 C 0 km/h
73 26-12-2020 06:00:00 1.6 C 5.14 g/m*3 1.6 C 0 km/h
74 26-12-2020 06:05:00 1.5 C 5.1 g/m*3 1.5 C 0 km/h
75 26-12-2020 06:10:00 1.4 C 5.07 g/m*3 1.4 C 0 km/h
Sensor: Nr:Datum:Temp:Abs-Feuchte:Windchill:Wind:
Aussen-T/F 76 26-12-2020 06:15:00 1.4 C 5.07 g/m*3 1.4 C 0 km/h
77 26-12-2020 06:20:00 1.4 C 5.07 g/m*3 1.4 C 0 km/h
78 26-12-2020 06:25:00 1.4 C 5.07 g/m*3 1.4 C 3.2 km/h
79 26-12-2020 06:30:00 1.4 C 5.07 g/m*3 1.4 C 0 km/h
80 26-12-2020 06:35:00 1.4 C 5.07 g/m*3 1.4 C 0 km/h
81 26-12-2020 06:40:00 1.4 C 5.07 g/m*3 1.4 C 0 km/h
82 26-12-2020 06:45:00 1.3 C 5.03 g/m*3 1.3 C 0 km/h
83 26-12-2020 06:50:00 1.3 C 5.03 g/m*3 1.3 C 0 km/h
84 26-12-2020 06:55:00 1.2 C 5 g/m*3 1.2 C 0 km/h
85 26-12-2020 07:00:00 1.2 C 5 g/m*3 1.2 C 0 km/h
86 26-12-2020 07:05:00 1.1 C 4.96 g/m*3 1.1 C 0 km/h
87 26-12-2020 07:10:00 1.1 C 4.96 g/m*3 1.1 C 0 km/h
88 26-12-2020 07:15:00 0.9 C 4.9 g/m*3 0.9 C 0 km/h
89 26-12-2020 07:20:00 0.9 C 4.9 g/m*3 0.9 C 1.6 km/h
90 26-12-2020 07:25:00 0.9 C 4.9 g/m*3 0.9 C 0 km/h
91 26-12-2020 07:30:00 0.9 C 4.95 g/m*3 0.9 C 0 km/h
92 26-12-2020 07:35:00 0.9 C 4.95 g/m*3 0.9 C 0 km/h
93 26-12-2020 07:40:00 0.9 C 4.95 g/m*3 0.9 C 0 km/h
94 26-12-2020 07:45:00 0.9 C 4.9 g/m*3 0.9 C 0 km/h
95 26-12-2020 07:50:00 0.9 C 4.9 g/m*3 0.9 C 0 km/h
96 26-12-2020 07:55:00 0.9 C 4.95 g/m*3 0.9 C 0 km/h
97 26-12-2020 08:00:00 0.9 C 4.95 g/m*3 0.9 C 3.2 km/h
98 26-12-2020 08:05:00 0.9 C 4.95 g/m*3 0.9 C 0 km/h
99 26-12-2020 08:10:00 0.9 C 4.95 g/m*3 0.9 C 0 km/h
100 26-12-2020 08:15:00 0.8 C 4.91 g/m*3 0.8 C 0 km/h
Sensor: Nr:Datum:Temp:Abs-Feuchte:Windchill:Wind:
Aussen-T/F 101 26-12-2020 08:20:00 0.7 C 4.88 g/m*3 0.7 C 0 km/h
102 26-12-2020 08:25:00 0.7 C 4.88 g/m*3 0.7 C 0 km/h
103 26-12-2020 08:30:00 0.7 C 4.88 g/m*3 0.7 C 1.6 km/h
104 26-12-2020 08:35:00 0.7 C 4.88 g/m*3 0.7 C 0 km/h
105 26-12-2020 08:40:00 0.8 C 4.91 g/m*3 0.8 C 0 km/h
106 26-12-2020 08:45:00 0.8 C 4.91 g/m*3 0.8 C 0 km/h
107 26-12-2020 08:50:00 1 C 4.98 g/m*3 1 C 3.2 km/h
108 26-12-2020 08:55:00 1.1 C 5.02 g/m*3 1.1 C 1.6 km/h
109 26-12-2020 09:00:00 1.2 C 5.05 g/m*3 1.2 C 0 km/h
110 26-12-2020 09:05:00 1.3 C 5.09 g/m*3 1.3 C 3.2 km/h
111 26-12-2020 09:10:00 1.4 C 5.17 g/m*3 1.4 C 1.6 km/h
112 26-12-2020 09:15:00 1.6 C 5.25 g/m*3 1.6 C 4.8 km/h
113 26-12-2020 09:20:00 1.7 C 5.23 g/m*3 1.7 C 3.2 km/h
114 26-12-2020 09:25:00 1.8 C 5.26 g/m*3 1.8 C 1.6 km/h
115 26-12-2020 09:30:00 1.8 C 5.26 g/m*3 1.8 C 4.8 km/h
116 26-12-2020 09:35:00 1.9 C 5.3 g/m*3 1.9 C 0 km/h
117 26-12-2020 09:40:00 2.1 C 5.37 g/m*3 2.1 C 4.8 km/h
118 26-12-2020 09:45:00 2.1 C 5.37 g/m*3 2.1 C 0 km/h
119 26-12-2020 09:50:00 2.2 C 5.41 g/m*3 2.2 C 1.6 km/h
120 26-12-2020 09:55:00 2.2 C 5.41 g/m*3 2.2 C 1.6 km/h
121 26-12-2020 10:00:00 2.3 C 5.44 g/m*3 2.3 C 1.6 km/h
122 26-12-2020 10:05:00 2.3 C 5.44 g/m*3 2.3 C 3.2 km/h
123 26-12-2020 10:10:00 2.4 C 5.48 g/m*3 2.4 C 4.8 km/h
124 26-12-2020 10:15:00 2.5 C 5.52 g/m*3 2.5 C 0 km/h
125 26-12-2020 10:20:00 2.6 C 5.56 g/m*3 2.6 C 3.2 km/h
Sensor: Nr:Datum:Temp:Abs-Feuchte:Windchill:Wind:
Aussen-T/F 126 26-12-2020 10:25:00 2.6 C 5.56 g/m*3 2.6 C 0 km/h
127 26-12-2020 10:30:00 2.6 C 5.56 g/m*3 2.6 C 0 km/h
128 26-12-2020 10:35:00 2.7 C 5.54 g/m*3 2.7 C 0 km/h
129 26-12-2020 10:40:00 2.7 C 5.54 g/m*3 2.7 C 0 km/h
130 26-12-2020 10:45:00 2.8 C 5.63 g/m*3 2.8 C 0 km/h
131 26-12-2020 10:50:00 2.9 C 5.67 g/m*3 2.9 C 0 km/h
132 26-12-2020 10:55:00 2.9 C 5.67 g/m*3 2.9 C 0 km/h
133 26-12-2020 11:00:00 3.1 C 5.69 g/m*3 3.1 C 0 km/h
134 26-12-2020 11:05:00 3.2 C 5.72 g/m*3 3.2 C 3.2 km/h
135 26-12-2020 11:10:00 3.3 C 5.76 g/m*3 1.63 C 6.4 km/h
136 26-12-2020 11:15:00 3.4 C 5.74 g/m*3 1.75 C 6.4 km/h
137 26-12-2020 11:20:00 3.4 C 5.74 g/m*3 0.82 C 9.7 km/h
138 26-12-2020 11:25:00 3.6 C 5.76 g/m*3 1.46 C 8.1 km/h
139 26-12-2020 11:30:00 3.7 C 5.8 g/m*3 3.7 C 4.8 km/h
140 26-12-2020 11:35:00 3.8 C 5.83 g/m*3 3.8 C 3.2 km/h
141 26-12-2020 11:40:00 3.9 C 5.87 g/m*3 2.32 C 6.4 km/h
142 26-12-2020 11:45:00 4 C 5.85 g/m*3 1.53 C 9.7 km/h
143 26-12-2020 11:50:00 4.1 C 5.82 g/m*3 2.05 C 8.1 km/h
144 26-12-2020 11:55:00 4.2 C 5.86 g/m*3 1.12 C 12.9 km/h
145 26-12-2020 12:00:00 4.3 C 5.77 g/m*3 1.24 C 12.9 km/h
146 26-12-2020 12:05:00 4.3 C 5.77 g/m*3 1.89 C 9.7 km/h
147 26-12-2020 12:10:00 4.4 C 5.75 g/m*3 2.01 C 9.7 km/h
148 26-12-2020 12:15:00 4.4 C 5.75 g/m*3 2.4 C 8.1 km/h
149 26-12-2020 12:20:00 4.3 C 5.71 g/m*3 2.29 C 8.1 km/h
150 26-12-2020 12:25:00 4.2 C 5.67 g/m*3 1.43 C 11.3 km/h
Sensor: Nr:Datum:Temp:Abs-Feuchte:Windchill:Wind:
Aussen-T/F 151 26-12-2020 12:30:00 4.1 C 5.57 g/m*3 1.31 C 11.3 km/h
152 26-12-2020 12:35:00 4.2 C 5.61 g/m*3 2.17 C 8.1 km/h
153 26-12-2020 12:40:00 4.3 C 5.64 g/m*3 1.89 C 9.7 km/h
154 26-12-2020 12:45:00 4.5 C 5.72 g/m*3 2.13 C 9.7 km/h
155 26-12-2020 12:50:00 4.7 C 5.8 g/m*3 2.76 C 8.1 km/h
156 26-12-2020 12:55:00 4.8 C 5.77 g/m*3 1.11 C 17.7 km/h
157 26-12-2020 13:00:00 4.8 C 5.7 g/m*3 1.85 C 12.9 km/h
158 26-12-2020 13:05:00 4.8 C 5.7 g/m*3 2.87 C 8.1 km/h
159 26-12-2020 13:10:00 4.7 C 5.66 g/m*3 2.76 C 8.1 km/h
160 26-12-2020 13:15:00 4.6 C 5.62 g/m*3 1.91 C 11.3 km/h
161 26-12-2020 13:20:00 4.6 C 5.69 g/m*3 3.13 C 6.4 km/h
162 26-12-2020 13:25:00 4.6 C 5.69 g/m*3 2.64 C 8.1 km/h
163 26-12-2020 13:30:00 4.5 C 5.65 g/m*3 2.13 C 9.7 km/h
164 26-12-2020 13:35:00 4.5 C 5.65 g/m*3 2.52 C 8.1 km/h
165 26-12-2020 13:40:00 4.5 C 5.65 g/m*3 2.52 C 8.1 km/h
166 26-12-2020 13:45:00 4.5 C 5.65 g/m*3 1.48 C 12.9 km/h
167 26-12-2020 13:50:00 4.4 C 5.55 g/m*3 1.09 C 14.5 km/h
168 26-12-2020 13:55:00 4.4 C 5.55 g/m*3 2.4 C 8.1 km/h
169 26-12-2020 14:00:00 4.4 C 5.62 g/m*3 4.4 C 4.8 km/h
170 26-12-2020 14:05:00 4.5 C 5.59 g/m*3 3.02 C 6.4 km/h
171 26-12-2020 14:10:00 4.5 C 5.52 g/m*3 1.79 C 11.3 km/h
172 26-12-2020 14:15:00 4.5 C 5.52 g/m*3 1.79 C 11.3 km/h
173 26-12-2020 14:20:00 4.5 C 5.52 g/m*3 2.52 C 8.1 km/h
174 26-12-2020 14:25:00 4.6 C 5.56 g/m*3 2.64 C 8.1 km/h
175 26-12-2020 14:30:00 4.6 C 5.56 g/m*3 2.64 C 8.1 km/h
Sensor: Nr:Datum:Temp:Abs-Feuchte:Windchill:Wind:
Aussen-T/F 176 26-12-2020 14:35:00 4.6 C 5.56 g/m*3 1.61 C 12.9 km/h
177 26-12-2020 14:40:00 4.4 C 5.42 g/m*3 1.09 C 14.5 km/h
178 26-12-2020 14:45:00 4.4 C 5.42 g/m*3 2.01 C 9.7 km/h
179 26-12-2020 14:50:00 4.4 C 5.42 g/m*3 1.67 C 11.3 km/h
180 26-12-2020 14:55:00 4.4 C 5.48 g/m*3 1.67 C 11.3 km/h
181 26-12-2020 15:00:00 4.3 C 5.38 g/m*3 1.55 C 11.3 km/h
182 26-12-2020 15:05:00 4.3 C 5.38 g/m*3 2.29 C 8.1 km/h
183 26-12-2020 15:10:00 4.2 C 5.35 g/m*3 2.17 C 8.1 km/h
184 26-12-2020 15:15:00 4.1 C 5.38 g/m*3 2.55 C 6.4 km/h
185 26-12-2020 15:20:00 4.1 C 5.38 g/m*3 2.55 C 6.4 km/h
186 26-12-2020 15:25:00 4.1 C 5.38 g/m*3 1.31 C 11.3 km/h
187 26-12-2020 15:30:00 4.1 C 5.38 g/m*3 2.55 C 6.4 km/h
188 26-12-2020 15:35:00 4.1 C 5.38 g/m*3 4.1 C 4.8 km/h
189 26-12-2020 15:40:00 4.1 C 5.31 g/m*3 2.55 C 6.4 km/h
190 26-12-2020 15:45:00 4.1 C 5.31 g/m*3 2.05 C 8.1 km/h
191 26-12-2020 15:50:00 4 C 5.28 g/m*3 1.93 C 8.1 km/h
192 26-12-2020 15:55:00 3.9 C 5.24 g/m*3 1.41 C 9.7 km/h
193 26-12-2020 16:00:00 3.9 C 5.18 g/m*3 1.41 C 9.7 km/h
194 26-12-2020 16:05:00 3.9 C 5.18 g/m*3 2.32 C 6.4 km/h
195 26-12-2020 16:10:00 3.9 C 5.24 g/m*3 3.9 C 3.2 km/h
196 26-12-2020 16:15:00 3.9 C 5.24 g/m*3 3.9 C 4.8 km/h
197 26-12-2020 16:20:00 3.9 C 5.24 g/m*3 1.82 C 8.1 km/h
198 26-12-2020 16:25:00 3.9 C 5.24 g/m*3 1.41 C 9.7 km/h
199 26-12-2020 16:30:00 3.9 C 5.24 g/m*3 1.82 C 8.1 km/h
200 26-12-2020 16:35:00 3.9 C 5.24 g/m*3 -0.01 C 17.7 km/h
Sensor: Nr:Datum:Temp:Abs-Feuchte:Windchill:Wind:
Aussen-T/F 201 26-12-2020 16:40:00 3.9 C 5.31 g/m*3 0.47 C 14.5 km/h
202 26-12-2020 16:45:00 3.9 C 5.24 g/m*3 0.75 C 12.9 km/h
203 26-12-2020 16:50:00 3.9 C 5.31 g/m*3 3.9 C 4.8 km/h
204 26-12-2020 16:55:00 3.9 C 5.24 g/m*3 1.82 C 8.1 km/h
205 26-12-2020 17:00:00 3.9 C 5.24 g/m*3 2.32 C 6.4 km/h
206 26-12-2020 17:05:00 3.9 C 5.31 g/m*3 3.9 C 4.8 km/h
207 26-12-2020 17:10:00 3.9 C 5.31 g/m*3 3.9 C 4.8 km/h
208 26-12-2020 17:15:00 3.9 C 5.24 g/m*3 3.9 C 4.8 km/h
209 26-12-2020 17:20:00 3.9 C 5.24 g/m*3 2.32 C 6.4 km/h
210 26-12-2020 17:25:00 3.9 C 5.24 g/m*3 3.9 C 4.8 km/h
211 26-12-2020 17:30:00 3.9 C 5.24 g/m*3 1.41 C 9.7 km/h
212 26-12-2020 17:35:00 3.9 C 5.24 g/m*3 1.82 C 8.1 km/h
213 26-12-2020 17:40:00 3.9 C 5.24 g/m*3 2.32 C 6.4 km/h
214 26-12-2020 17:45:00 3.9 C 5.24 g/m*3 1.82 C 8.1 km/h
215 26-12-2020 17:50:00 3.9 C 5.24 g/m*3 1.82 C 8.1 km/h
216 26-12-2020 17:55:00 3.9 C 5.24 g/m*3 2.32 C 6.4 km/h
217 26-12-2020 18:00:00 3.9 C 5.24 g/m*3 3.9 C 4.8 km/h
218 26-12-2020 18:05:00 3.9 C 5.24 g/m*3 1.41 C 9.7 km/h
219 26-12-2020 18:10:00 3.9 C 5.24 g/m*3 1.41 C 9.7 km/h
220 26-12-2020 18:15:00 3.9 C 5.24 g/m*3 -0.01 C 17.7 km/h
221 26-12-2020 18:20:00 3.9 C 5.24 g/m*3 1.41 C 9.7 km/h
222 26-12-2020 18:25:00 3.9 C 5.24 g/m*3 1.41 C 9.7 km/h
223 26-12-2020 18:30:00 3.9 C 5.24 g/m*3 2.32 C 6.4 km/h
224 26-12-2020 18:35:00 3.9 C 5.24 g/m*3 2.32 C 6.4 km/h
225 26-12-2020 18:40:00 3.9 C 5.24 g/m*3 1.41 C 9.7 km/h
Sensor: Nr:Datum:Temp:Abs-Feuchte:Windchill:Wind:
Aussen-T/F 226 26-12-2020 18:45:00 3.9 C 5.24 g/m*3 2.32 C 6.4 km/h
227 26-12-2020 18:50:00 3.8 C 5.21 g/m*3 1.7 C 8.1 km/h
228 26-12-2020 18:55:00 3.8 C 5.21 g/m*3 1.29 C 9.7 km/h
229 26-12-2020 19:00:00 3.7 C 5.17 g/m*3 2.09 C 6.4 km/h
230 26-12-2020 19:05:00 3.7 C 5.17 g/m*3 3.7 C 4.8 km/h
231 26-12-2020 19:10:00 3.6 C 5.14 g/m*3 0.7 C 11.3 km/h
232 26-12-2020 19:15:00 3.5 C 5.1 g/m*3 0.94 C 9.7 km/h
233 26-12-2020 19:20:00 3.4 C 5.07 g/m*3 1.23 C 8.1 km/h
234 26-12-2020 19:25:00 3.4 C 5.13 g/m*3 3.4 C 0 km/h
235 26-12-2020 19:30:00 3.3 C 5.04 g/m*3 3.3 C 3.2 km/h
236 26-12-2020 19:35:00 3.3 C 5.1 g/m*3 0.7 C 9.7 km/h
237 26-12-2020 19:40:00 3.3 C 5.1 g/m*3 3.3 C 3.2 km/h
238 26-12-2020 19:45:00 3.3 C 5.1 g/m*3 1.63 C 6.4 km/h
239 26-12-2020 19:50:00 3.3 C 5.1 g/m*3 1.63 C 6.4 km/h
240 26-12-2020 19:55:00 3.4 C 5.13 g/m*3 0.82 C 9.7 km/h
241 26-12-2020 20:00:00 3.4 C 5.07 g/m*3 1.23 C 8.1 km/h
242 26-12-2020 20:05:00 3.5 C 5.1 g/m*3 3.5 C 3.2 km/h
243 26-12-2020 20:10:00 3.5 C 5.1 g/m*3 1.34 C 8.1 km/h
244 26-12-2020 20:15:00 3.6 C 5.14 g/m*3 0.39 C 12.9 km/h
245 26-12-2020 20:20:00 3.6 C 5.14 g/m*3 3.6 C 3.2 km/h
246 26-12-2020 20:25:00 3.6 C 5.14 g/m*3 0.7 C 11.3 km/h
247 26-12-2020 20:30:00 3.6 C 5.08 g/m*3 1.98 C 6.4 km/h
248 26-12-2020 20:35:00 3.6 C 5.14 g/m*3 3.6 C 4.8 km/h
249 26-12-2020 20:40:00 3.6 C 5.14 g/m*3 1.98 C 6.4 km/h
250 26-12-2020 20:45:00 3.6 C 5.14 g/m*3 3.6 C 4.8 km/h
Sensor: Nr:Datum:Temp:Abs-Feuchte:Windchill:Wind:
Aussen-T/F 251 26-12-2020 20:50:00 3.5 C 5.1 g/m*3 3.5 C 4.8 km/h
252 26-12-2020 20:55:00 3.5 C 5.1 g/m*3 0.94 C 9.7 km/h
253 26-12-2020 21:00:00 3.5 C 5.1 g/m*3 1.86 C 6.4 km/h
254 26-12-2020 21:05:00 3.4 C 5.07 g/m*3 1.75 C 6.4 km/h
255 26-12-2020 21:10:00 3.4 C 5.07 g/m*3 3.4 C 1.6 km/h
256 26-12-2020 21:15:00 3.4 C 5.07 g/m*3 1.75 C 6.4 km/h
257 26-12-2020 21:20:00 3.4 C 5.07 g/m*3 1.23 C 8.1 km/h
258 26-12-2020 21:25:00 3.3 C 5.04 g/m*3 3.3 C 4.8 km/h
259 26-12-2020 21:30:00 3.2 C 5.06 g/m*3 1.51 C 6.4 km/h
260 26-12-2020 21:35:00 3.1 C 5.03 g/m*3 3.1 C 3.2 km/h
261 26-12-2020 21:40:00 3 C 4.99 g/m*3 0.34 C 9.7 km/h
262 26-12-2020 21:45:00 3 C 5.05 g/m*3 0.34 C 9.7 km/h
263 26-12-2020 21:50:00 3 C 5.05 g/m*3 1.28 C 6.4 km/h
264 26-12-2020 21:55:00 3 C 5.05 g/m*3 0.34 C 9.7 km/h
265 26-12-2020 22:00:00 3 C 5.05 g/m*3 3 C 3.2 km/h
266 26-12-2020 22:05:00 3.1 C 5.09 g/m*3 1.4 C 6.4 km/h
267 26-12-2020 22:10:00 3 C 5.05 g/m*3 3 C 3.2 km/h
268 26-12-2020 22:15:00 3 C 5.05 g/m*3 3 C 4.8 km/h
269 26-12-2020 22:20:00 3 C 5.05 g/m*3 1.28 C 6.4 km/h
270 26-12-2020 22:25:00 3 C 5.05 g/m*3 -0.02 C 11.3 km/h
271 26-12-2020 22:30:00 3 C 5.05 g/m*3 3 C 4.8 km/h
272 26-12-2020 22:35:00 2.9 C 5.02 g/m*3 0.64 C 8.1 km/h
273 26-12-2020 22:40:00 3 C 5.05 g/m*3 -0.02 C 11.3 km/h
274 26-12-2020 22:45:00 3.1 C 5.09 g/m*3 0.1 C 11.3 km/h
275 26-12-2020 22:50:00 3.1 C 5.09 g/m*3 -0.51 C 14.5 km/h
Sensor: Nr:Datum:Temp:Abs-Feuchte:Windchill:Wind:
Aussen-T/F 276 26-12-2020 22:55:00 3.1 C 5.03 g/m*3 0.1 C 11.3 km/h
277 26-12-2020 23:00:00 3.1 C 5.03 g/m*3 0.1 C 11.3 km/h
278 26-12-2020 23:05:00 3 C 4.99 g/m*3 0.34 C 9.7 km/h
279 26-12-2020 23:10:00 3 C 4.99 g/m*3 -0.9 C 16.1 km/h
280 26-12-2020 23:15:00 3 C 4.99 g/m*3 0.76 C 8.1 km/h
281 26-12-2020 23:20:00 2.9 C 4.96 g/m*3 1.17 C 6.4 km/h
282 26-12-2020 23:25:00 2.9 C 4.96 g/m*3 0.22 C 9.7 km/h
283 26-12-2020 23:30:00 2.9 C 4.96 g/m*3 0.22 C 9.7 km/h
284 26-12-2020 23:35:00 2.8 C 4.93 g/m*3 2.8 C 4.8 km/h
285 26-12-2020 23:40:00 2.8 C 4.99 g/m*3 0.52 C 8.1 km/h
286 26-12-2020 23:45:00 2.8 C 4.99 g/m*3 0.1 C 9.7 km/h
287 26-12-2020 23:50:00 2.8 C 4.93 g/m*3 1.05 C 6.4 km/h
288 26-12-2020 23:55:00 2.8 C 4.99 g/m*3 0.1 C 9.7 km/h
289 27-12-2020 00:00:00 2.8 C 4.93 g/m*3 1.05 C 6.4 km/h
290 27-12-2020 00:05:00 2.8 C 4.99 g/m*3 1.05 C 6.4 km/h
291 27-12-2020 00:10:00 2.8 C 4.99 g/m*3 1.05 C 6.4 km/h
292 27-12-2020 00:15:00 2.8 C 4.99 g/m*3 2.8 C 1.6 km/h
293 27-12-2020 00:20:00 2.7 C 4.95 g/m*3 0.94 C 6.4 km/h
294 27-12-2020 00:25:00 2.8 C 4.99 g/m*3 2.8 C 3.2 km/h
295 27-12-2020 00:30:00 2.8 C 4.99 g/m*3 0.1 C 9.7 km/h
296 27-12-2020 00:35:00 2.8 C 4.99 g/m*3 0.1 C 9.7 km/h
297 27-12-2020 00:40:00 2.9 C 5.02 g/m*3 1.17 C 6.4 km/h
298 27-12-2020 00:45:00 2.9 C 5.02 g/m*3 -0.14 C 11.3 km/h
299 27-12-2020 00:50:00 2.9 C 5.02 g/m*3 0.64 C 8.1 km/h
300 27-12-2020 00:55:00 2.9 C 5.02 g/m*3 0.64 C 8.1 km/h
Sensor: Nr:Datum:Temp:Abs-Feuchte:Windchill:Wind:
Aussen-T/F 301 27-12-2020 01:00:00 2.9 C 5.02 g/m*3 -0.14 C 11.3 km/h
302 27-12-2020 01:05:00 3 C 5.05 g/m*3 -0.9 C 16.1 km/h
303 27-12-2020 01:10:00 3 C 5.05 g/m*3 0.76 C 8.1 km/h
304 27-12-2020 01:15:00 3 C 5.05 g/m*3 0.76 C 8.1 km/h
305 27-12-2020 01:20:00 2.9 C 5.02 g/m*3 -0.14 C 11.3 km/h
306 27-12-2020 01:25:00 3 C 5.05 g/m*3 -0.02 C 11.3 km/h
307 27-12-2020 01:30:00 3 C 5.05 g/m*3 3 C 3.2 km/h
308 27-12-2020 01:35:00 2.9 C 5.02 g/m*3 0.64 C 8.1 km/h
309 27-12-2020 01:40:00 3 C 5.05 g/m*3 0.34 C 9.7 km/h
310 27-12-2020 01:45:00 3 C 5.05 g/m*3 -0.02 C 11.3 km/h
311 27-12-2020 01:50:00 3.1 C 5.09 g/m*3 -0.51 C 14.5 km/h
312 27-12-2020 01:55:00 3.1 C 5.09 g/m*3 3.1 C 4.8 km/h
313 27-12-2020 02:00:00 3.2 C 5.06 g/m*3 0.99 C 8.1 km/h
314 27-12-2020 02:05:00 3.2 C 5.06 g/m*3 -0.65 C 16.1 km/h
315 27-12-2020 02:10:00 3.3 C 5.1 g/m*3 0.02 C 12.9 km/h
316 27-12-2020 02:15:00 3.3 C 5.1 g/m*3 0.7 C 9.7 km/h
317 27-12-2020 02:20:00 3.3 C 5.1 g/m*3 0.34 C 11.3 km/h
318 27-12-2020 02:25:00 3.3 C 5.1 g/m*3 3.3 C 4.8 km/h
319 27-12-2020 02:30:00 3.3 C 5.04 g/m*3 1.63 C 6.4 km/h
320 27-12-2020 02:35:00 3.3 C 5.1 g/m*3 3.3 C 3.2 km/h
321 27-12-2020 02:40:00 3.3 C 5.1 g/m*3 3.3 C 1.6 km/h
322 27-12-2020 02:45:00 3.2 C 5.06 g/m*3 1.51 C 6.4 km/h
323 27-12-2020 02:50:00 3.2 C 5.06 g/m*3 3.2 C 4.8 km/h
324 27-12-2020 02:55:00 3.2 C 5.06 g/m*3 3.2 C 3.2 km/h
325 27-12-2020 03:00:00 3.2 C 5.06 g/m*3 1.51 C 6.4 km/h
Sensor: Nr:Datum:Temp:Abs-Feuchte:Windchill:Wind:
Aussen-T/F 326 27-12-2020 03:05:00 3.2 C 5.06 g/m*3 1.51 C 6.4 km/h
327 27-12-2020 03:10:00 3.2 C 5.06 g/m*3 3.2 C 1.6 km/h
328 27-12-2020 03:15:00 3.1 C 5.09 g/m*3 3.1 C 4.8 km/h
329 27-12-2020 03:20:00 3.1 C 5.09 g/m*3 1.4 C 6.4 km/h
330 27-12-2020 03:25:00 3.1 C 5.03 g/m*3 1.4 C 6.4 km/h
331 27-12-2020 03:30:00 3.1 C 5.03 g/m*3 3.1 C 4.8 km/h
332 27-12-2020 03:35:00 3.1 C 5.03 g/m*3 3.1 C 4.8 km/h
333 27-12-2020 03:40:00 3.2 C 5.06 g/m*3 0.99 C 8.1 km/h
334 27-12-2020 03:45:00 3.2 C 5.06 g/m*3 0.99 C 8.1 km/h
335 27-12-2020 03:50:00 3.2 C 5.06 g/m*3 3.2 C 3.2 km/h
336 27-12-2020 03:55:00 3.2 C 5.12 g/m*3 3.2 C 1.6 km/h
337 27-12-2020 04:00:00 3.2 C 5.12 g/m*3 1.51 C 6.4 km/h
338 27-12-2020 04:05:00 3.2 C 5.06 g/m*3 0.99 C 8.1 km/h
339 27-12-2020 04:10:00 3.2 C 5.06 g/m*3 3.2 C 1.6 km/h
340 27-12-2020 04:15:00 3.2 C 5.06 g/m*3 -0.39 C 14.5 km/h
341 27-12-2020 04:20:00 3.2 C 5.06 g/m*3 0.99 C 8.1 km/h
342 27-12-2020 04:25:00 3.2 C 5.06 g/m*3 0.58 C 9.7 km/h
343 27-12-2020 04:30:00 3.2 C 5.06 g/m*3 0.58 C 9.7 km/h
344 27-12-2020 04:35:00 3.3 C 5.1 g/m*3 3.3 C 4.8 km/h
345 27-12-2020 04:40:00 3.3 C 5.1 g/m*3 3.3 C 4.8 km/h
346 27-12-2020 04:45:00 3.3 C 5.1 g/m*3 0.7 C 9.7 km/h
347 27-12-2020 04:50:00 3.3 C 5.1 g/m*3 0.7 C 9.7 km/h
348 27-12-2020 04:55:00 3.3 C 5.04 g/m*3 3.3 C 4.8 km/h
349 27-12-2020 05:00:00 3.3 C 5.04 g/m*3 1.63 C 6.4 km/h
350 27-12-2020 05:05:00 3.4 C 5.07 g/m*3 -0.4 C 16.1 km/h
Sensor: Nr:Datum:Temp:Abs-Feuchte:Windchill:Wind:
Aussen-T/F 351 27-12-2020 05:10:00 3.4 C 5.07 g/m*3 1.23 C 8.1 km/h
352 27-12-2020 05:15:00 3.4 C 5.07 g/m*3 1.23 C 8.1 km/h
353 27-12-2020 05:20:00 3.4 C 5.07 g/m*3 -1.26 C 22.5 km/h
354 27-12-2020 05:25:00 3.4 C 5.07 g/m*3 3.4 C 4.8 km/h
355 27-12-2020 05:30:00 3.4 C 5.07 g/m*3 0.46 C 11.3 km/h
356 27-12-2020 05:35:00 3.4 C 5.07 g/m*3 3.4 C 4.8 km/h
357 27-12-2020 05:40:00 3.4 C 5.07 g/m*3 3.4 C 4.8 km/h
358 27-12-2020 05:45:00 3.4 C 5.13 g/m*3 0.46 C 11.3 km/h
359 27-12-2020 05:50:00 3.4 C 5.13 g/m*3 1.23 C 8.1 km/h
360 27-12-2020 05:55:00 3.5 C 5.16 g/m*3 0.94 C 9.7 km/h
361 27-12-2020 06:00:00 3.5 C 5.1 g/m*3 1.34 C 8.1 km/h
362 27-12-2020 06:05:00 3.5 C 5.16 g/m*3 1.34 C 8.1 km/h
363 27-12-2020 06:10:00 3.5 C 5.16 g/m*3 1.86 C 6.4 km/h
364 27-12-2020 06:15:00 3.5 C 5.1 g/m*3 -0.02 C 14.5 km/h
365 27-12-2020 06:20:00 3.4 C 5.07 g/m*3 0.46 C 11.3 km/h
366 27-12-2020 06:25:00 3.4 C 5.07 g/m*3 3.4 C 3.2 km/h
367 27-12-2020 06:30:00 3.4 C 5.07 g/m*3 3.4 C 3.2 km/h
368 27-12-2020 06:35:00 3.4 C 5.07 g/m*3 0.46 C 11.3 km/h
369 27-12-2020 06:40:00 3.4 C 5.07 g/m*3 1.23 C 8.1 km/h
370 27-12-2020 06:45:00 3.4 C 5.07 g/m*3 0.46 C 11.3 km/h
371 27-12-2020 06:50:00 3.4 C 5.13 g/m*3 0.82 C 9.7 km/h
372 27-12-2020 06:55:00 3.5 C 5.16 g/m*3 3.5 C 4.8 km/h
373 27-12-2020 07:00:00 3.5 C 5.16 g/m*3 0.94 C 9.7 km/h
374 27-12-2020 07:05:00 3.5 C 5.16 g/m*3 0.58 C 11.3 km/h
375 27-12-2020 07:10:00 3.5 C 5.16 g/m*3 3.5 C 4.8 km/h
Sensor: Nr:Datum:Temp:Abs-Feuchte:Windchill:Wind:
Aussen-T/F 376 27-12-2020 07:15:00 3.5 C 5.16 g/m*3 3.5 C 3.2 km/h
377 27-12-2020 07:20:00 3.5 C 5.16 g/m*3 0.58 C 11.3 km/h
378 27-12-2020 07:25:00 3.5 C 5.23 g/m*3 3.5 C 4.8 km/h
379 27-12-2020 07:30:00 3.6 C 5.26 g/m*3 3.6 C 3.2 km/h
380 27-12-2020 07:35:00 3.6 C 5.26 g/m*3 0.7 C 11.3 km/h
381 27-12-2020 07:40:00 3.6 C 5.26 g/m*3 1.06 C 9.7 km/h
382 27-12-2020 07:45:00 3.6 C 5.26 g/m*3 3.6 C 3.2 km/h
383 27-12-2020 07:50:00 3.6 C 5.26 g/m*3 1.46 C 8.1 km/h
384 27-12-2020 07:55:00 3.6 C 5.26 g/m*3 3.6 C 3.2 km/h
385 27-12-2020 08:00:00 3.6 C 5.26 g/m*3 3.6 C 4.8 km/h
386 27-12-2020 08:05:00 3.7 C 5.3 g/m*3 2.09 C 6.4 km/h
387 27-12-2020 08:10:00 3.7 C 5.23 g/m*3 3.7 C 4.8 km/h
388 27-12-2020 08:15:00 3.8 C 5.27 g/m*3 1.7 C 8.1 km/h
389 27-12-2020 08:20:00 3.8 C 5.27 g/m*3 3.8 C 4.8 km/h
390 27-12-2020 08:25:00 3.8 C 5.27 g/m*3 3.8 C 3.2 km/h
391 27-12-2020 08:30:00 3.8 C 5.33 g/m*3 3.8 C 3.2 km/h
392 27-12-2020 08:35:00 3.9 C 5.31 g/m*3 2.32 C 6.4 km/h
393 27-12-2020 08:40:00 3.9 C 5.37 g/m*3 1.82 C 8.1 km/h
394 27-12-2020 08:45:00 3.9 C 5.31 g/m*3 1.41 C 9.7 km/h
395 27-12-2020 08:50:00 4 C 5.34 g/m*3 -0.67 C 24.1 km/h
396 27-12-2020 08:55:00 4.1 C 5.38 g/m*3 -0.55 C 24.1 km/h
397 27-12-2020 09:00:00 4.1 C 5.38 g/m*3 2.55 C 6.4 km/h
398 27-12-2020 09:05:00 4.1 C 5.38 g/m*3 1.65 C 9.7 km/h
399 27-12-2020 09:10:00 4.1 C 5.38 g/m*3 2.55 C 6.4 km/h
400 27-12-2020 09:15:00 4 C 5.34 g/m*3 1.93 C 8.1 km/h
Sensor: Nr:Datum:Temp:Abs-Feuchte:Windchill:Wind:
Aussen-T/F 401 27-12-2020 09:20:00 3.9 C 5.37 g/m*3 0.47 C 14.5 km/h
402 27-12-2020 09:25:00 3.9 C 5.43 g/m*3 2.32 C 6.4 km/h
403 27-12-2020 09:30:00 3.8 C 5.4 g/m*3 0.35 C 14.5 km/h
404 27-12-2020 09:35:00 3.8 C 5.4 g/m*3 0.94 C 11.3 km/h
405 27-12-2020 09:40:00 3.8 C 5.46 g/m*3 0.1 C 16.1 km/h
406 27-12-2020 09:45:00 3.7 C 5.42 g/m*3 1.18 C 9.7 km/h
407 27-12-2020 09:50:00 3.7 C 5.42 g/m*3 0.82 C 11.3 km/h
408 27-12-2020 09:55:00 3.7 C 5.42 g/m*3 1.58 C 8.1 km/h
409 27-12-2020 10:00:00 3.7 C 5.42 g/m*3 1.58 C 8.1 km/h
410 27-12-2020 10:05:00 3.7 C 5.42 g/m*3 3.7 C 4.8 km/h
411 27-12-2020 10:10:00 3.8 C 5.46 g/m*3 2.21 C 6.4 km/h
412 27-12-2020 10:15:00 3.8 C 5.4 g/m*3 3.8 C 4.8 km/h
413 27-12-2020 10:20:00 3.9 C 5.43 g/m*3 1.41 C 9.7 km/h
414 27-12-2020 10:25:00 3.9 C 5.43 g/m*3 1.06 C 11.3 km/h
415 27-12-2020 10:30:00 4 C 5.47 g/m*3 2.44 C 6.4 km/h
416 27-12-2020 10:35:00 4 C 5.53 g/m*3 4 C 4.8 km/h
417 27-12-2020 10:40:00 4 C 5.47 g/m*3 0.88 C 12.9 km/h
418 27-12-2020 10:45:00 4.1 C 5.5 g/m*3 1 C 12.9 km/h
419 27-12-2020 10:50:00 4.1 C 5.44 g/m*3 4.1 C 3.2 km/h
420 27-12-2020 10:55:00 4.1 C 5.44 g/m*3 1 C 12.9 km/h
421 27-12-2020 11:00:00 4.2 C 5.48 g/m*3 0.59 C 16.1 km/h
422 27-12-2020 11:05:00 4.3 C 5.45 g/m*3 1.55 C 11.3 km/h
423 27-12-2020 11:10:00 4.4 C 5.48 g/m*3 1.09 C 14.5 km/h
424 27-12-2020 11:15:00 4.5 C 5.46 g/m*3 0.74 C 17.7 km/h
425 27-12-2020 11:20:00 4.6 C 5.49 g/m*3 2.64 C 8.1 km/h
Sensor: Nr:Datum:Temp:Abs-Feuchte:Windchill:Wind:
Aussen-T/F 426 27-12-2020 11:25:00 4.6 C 5.49 g/m*3 2.25 C 9.7 km/h
427 27-12-2020 11:30:00 4.7 C 5.53 g/m*3 2.76 C 8.1 km/h
428 27-12-2020 11:35:00 4.7 C 5.53 g/m*3 2.76 C 8.1 km/h
429 27-12-2020 11:40:00 4.7 C 5.53 g/m*3 1.46 C 14.5 km/h
430 27-12-2020 11:45:00 4.7 C 5.53 g/m*3 1.73 C 12.9 km/h
431 27-12-2020 11:50:00 4.7 C 5.53 g/m*3 2.76 C 8.1 km/h
432 27-12-2020 11:55:00 4.7 C 5.53 g/m*3 1.73 C 12.9 km/h
433 27-12-2020 12:00:00 4.7 C 5.53 g/m*3 1.21 C 16.1 km/h
434 27-12-2020 12:05:00 4.8 C 5.63 g/m*3 2.49 C 9.7 km/h
435 27-12-2020 12:10:00 4.8 C 5.63 g/m*3 2.87 C 8.1 km/h
436 27-12-2020 12:15:00 4.8 C 5.63 g/m*3 2.49 C 9.7 km/h
437 27-12-2020 12:20:00 4.8 C 5.7 g/m*3 2.87 C 8.1 km/h
438 27-12-2020 12:25:00 4.7 C 5.66 g/m*3 2.37 C 9.7 km/h
439 27-12-2020 12:30:00 4.7 C 5.73 g/m*3 2.76 C 8.1 km/h
440 27-12-2020 12:35:00 4.6 C 5.69 g/m*3 1.91 C 11.3 km/h
441 27-12-2020 12:40:00 4.5 C 5.72 g/m*3 2.52 C 8.1 km/h
442 27-12-2020 12:45:00 4.4 C 5.75 g/m*3 2.01 C 9.7 km/h
443 27-12-2020 12:50:00 4.3 C 5.71 g/m*3 2.78 C 6.4 km/h
444 27-12-2020 12:55:00 4.4 C 5.81 g/m*3 4.4 C 4.8 km/h
445 27-12-2020 13:00:00 4.3 C 5.77 g/m*3 1.55 C 11.3 km/h
446 27-12-2020 13:05:00 4.3 C 5.77 g/m*3 1.55 C 11.3 km/h
447 27-12-2020 13:10:00 4.3 C 5.77 g/m*3 4.3 C 4.8 km/h
448 27-12-2020 13:15:00 4.2 C 5.73 g/m*3 1.43 C 11.3 km/h
449 27-12-2020 13:20:00 4.2 C 5.8 g/m*3 1.77 C 9.7 km/h
450 27-12-2020 13:25:00 4.1 C 5.76 g/m*3 1.65 C 9.7 km/h
Sensor: Nr:Datum:Temp:Abs-Feuchte:Windchill:Wind:
Aussen-T/F 451 27-12-2020 13:30:00 4.1 C 5.76 g/m*3 1.65 C 9.7 km/h
452 27-12-2020 13:35:00 4.1 C 5.76 g/m*3 1.31 C 11.3 km/h
453 27-12-2020 13:40:00 4.1 C 5.82 g/m*3 2.55 C 6.4 km/h
454 27-12-2020 13:45:00 4.1 C 5.76 g/m*3 2.05 C 8.1 km/h
455 27-12-2020 13:50:00 4.1 C 5.82 g/m*3 4.1 C 1.6 km/h
456 27-12-2020 13:55:00 4.1 C 5.82 g/m*3 4.1 C 3.2 km/h
457 27-12-2020 14:00:00 4.1 C 5.82 g/m*3 2.05 C 8.1 km/h
458 27-12-2020 14:05:00 4.1 C 5.82 g/m*3 1.31 C 11.3 km/h
459 27-12-2020 14:10:00 4 C 5.79 g/m*3 1.18 C 11.3 km/h
460 27-12-2020 14:15:00 3.9 C 5.81 g/m*3 1.82 C 8.1 km/h
461 27-12-2020 14:20:00 3.9 C 5.75 g/m*3 1.06 C 11.3 km/h
462 27-12-2020 14:25:00 3.9 C 5.75 g/m*3 3.9 C 3.2 km/h
463 27-12-2020 14:30:00 3.9 C 5.81 g/m*3 3.9 C 4.8 km/h
464 27-12-2020 14:35:00 3.8 C 5.77 g/m*3 1.7 C 8.1 km/h
465 27-12-2020 14:40:00 3.8 C 5.77 g/m*3 0.35 C 14.5 km/h
466 27-12-2020 14:45:00 3.8 C 5.77 g/m*3 0.63 C 12.9 km/h
467 27-12-2020 14:50:00 3.8 C 5.77 g/m*3 3.8 C 4.8 km/h
468 27-12-2020 14:55:00 3.8 C 5.77 g/m*3 2.21 C 6.4 km/h
469 27-12-2020 15:00:00 3.8 C 5.83 g/m*3 2.21 C 6.4 km/h
470 27-12-2020 15:05:00 3.8 C 5.83 g/m*3 3.8 C 4.8 km/h
471 27-12-2020 15:10:00 3.8 C 5.83 g/m*3 0.1 C 16.1 km/h
472 27-12-2020 15:15:00 3.8 C 5.83 g/m*3 2.21 C 6.4 km/h
473 27-12-2020 15:20:00 3.8 C 5.83 g/m*3 1.29 C 9.7 km/h
474 27-12-2020 15:25:00 3.8 C 5.83 g/m*3 0.94 C 11.3 km/h
475 27-12-2020 15:30:00 3.8 C 5.83 g/m*3 2.21 C 6.4 km/h
Sensor: Nr:Datum:Temp:Abs-Feuchte:Windchill:Wind:
Aussen-T/F 476 27-12-2020 15:35:00 3.8 C 5.83 g/m*3 0.94 C 11.3 km/h
477 27-12-2020 15:40:00 3.8 C 5.83 g/m*3 3.8 C 1.6 km/h
478 27-12-2020 15:45:00 3.8 C 5.83 g/m*3 1.7 C 8.1 km/h
479 27-12-2020 15:50:00 3.8 C 5.83 g/m*3 1.29 C 9.7 km/h
480 27-12-2020 15:55:00 3.8 C 5.83 g/m*3 1.7 C 8.1 km/h
481 27-12-2020 16:00:00 3.8 C 5.83 g/m*3 1.7 C 8.1 km/h
482 27-12-2020 16:05:00 3.8 C 5.83 g/m*3 3.8 C 4.8 km/h
483 27-12-2020 16:10:00 3.8 C 5.83 g/m*3 2.21 C 6.4 km/h
484 27-12-2020 16:15:00 3.8 C 5.83 g/m*3 3.8 C 3.2 km/h
485 27-12-2020 16:20:00 3.8 C 5.83 g/m*3 3.8 C 4.8 km/h
486 27-12-2020 16:25:00 3.8 C 5.83 g/m*3 3.8 C 3.2 km/h
487 27-12-2020 16:30:00 3.8 C 5.9 g/m*3 3.8 C 3.2 km/h
488 27-12-2020 16:35:00 3.8 C 5.9 g/m*3 2.21 C 6.4 km/h
489 27-12-2020 16:40:00 3.8 C 5.83 g/m*3 3.8 C 4.8 km/h
490 27-12-2020 16:45:00 3.8 C 5.83 g/m*3 3.8 C 3.2 km/h
491 27-12-2020 16:50:00 3.8 C 5.83 g/m*3 0.1 C 16.1 km/h
492 27-12-2020 16:55:00 3.8 C 5.9 g/m*3 1.7 C 8.1 km/h
493 27-12-2020 17:00:00 3.8 C 5.9 g/m*3 -0.14 C 17.7 km/h
494 27-12-2020 17:05:00 3.8 C 5.9 g/m*3 3.8 C 4.8 km/h
495 27-12-2020 17:10:00 3.8 C 5.9 g/m*3 2.21 C 6.4 km/h
496 27-12-2020 17:15:00 3.8 C 5.9 g/m*3 1.7 C 8.1 km/h
497 27-12-2020 17:20:00 3.9 C 5.87 g/m*3 -0.23 C 19.3 km/h
498 27-12-2020 17:25:00 3.9 C 5.87 g/m*3 2.32 C 6.4 km/h
499 27-12-2020 17:30:00 3.9 C 5.94 g/m*3 1.41 C 9.7 km/h
500 27-12-2020 17:35:00 3.9 C 5.87 g/m*3 2.32 C 6.4 km/h
Sensor: Nr:Datum:Temp:Abs-Feuchte:Windchill:Wind:
Aussen-T/F 501 27-12-2020 17:40:00 3.8 C 5.83 g/m*3 3.8 C 4.8 km/h
502 27-12-2020 17:45:00 3.9 C 5.87 g/m*3 1.06 C 11.3 km/h
503 27-12-2020 17:50:00 3.9 C 5.87 g/m*3 1.82 C 8.1 km/h
504 27-12-2020 17:55:00 3.9 C 5.87 g/m*3 1.82 C 8.1 km/h
505 27-12-2020 18:00:00 3.9 C 5.87 g/m*3 1.41 C 9.7 km/h
506 27-12-2020 18:05:00 3.8 C 5.83 g/m*3 2.21 C 6.4 km/h
507 27-12-2020 18:10:00 3.8 C 5.83 g/m*3 3.8 C 4.8 km/h
508 27-12-2020 18:15:00 3.8 C 5.83 g/m*3 3.8 C 4.8 km/h
509 27-12-2020 18:20:00 3.7 C 5.86 g/m*3 1.58 C 8.1 km/h
510 27-12-2020 18:25:00 3.7 C 5.86 g/m*3 2.09 C 6.4 km/h
511 27-12-2020 18:30:00 3.7 C 5.86 g/m*3 1.18 C 9.7 km/h
512 27-12-2020 18:35:00 3.7 C 5.86 g/m*3 3.7 C 3.2 km/h
513 27-12-2020 18:40:00 3.7 C 5.86 g/m*3 1.58 C 8.1 km/h
514 27-12-2020 18:45:00 3.7 C 5.86 g/m*3 1.58 C 8.1 km/h
515 27-12-2020 18:50:00 3.7 C 5.86 g/m*3 3.7 C 4.8 km/h
516 27-12-2020 18:55:00 3.7 C 5.86 g/m*3 3.7 C 4.8 km/h
517 27-12-2020 19:00:00 3.7 C 5.86 g/m*3 0.23 C 14.5 km/h
518 27-12-2020 19:05:00 3.8 C 5.9 g/m*3 2.21 C 6.4 km/h
519 27-12-2020 19:10:00 3.8 C 5.9 g/m*3 0.63 C 12.9 km/h
520 27-12-2020 19:15:00 3.9 C 5.94 g/m*3 3.9 C 3.2 km/h
521 27-12-2020 19:20:00 3.9 C 5.94 g/m*3 1.41 C 9.7 km/h
522 27-12-2020 19:25:00 3.9 C 5.94 g/m*3 0.75 C 12.9 km/h
523 27-12-2020 19:30:00 4 C 5.98 g/m*3 1.93 C 8.1 km/h
524 27-12-2020 19:35:00 4.1 C 6.02 g/m*3 2.05 C 8.1 km/h
525 27-12-2020 19:40:00 4.1 C 5.95 g/m*3 2.05 C 8.1 km/h
Sensor: Nr:Datum:Temp:Abs-Feuchte:Windchill:Wind:
Aussen-T/F 526 27-12-2020 19:45:00 4.1 C 5.95 g/m*3 4.1 C 4.8 km/h
527 27-12-2020 19:50:00 4.1 C 6.02 g/m*3 2.05 C 8.1 km/h
528 27-12-2020 19:55:00 4.1 C 6.02 g/m*3 1.65 C 9.7 km/h
529 27-12-2020 20:00:00 4.1 C 6.02 g/m*3 4.1 C 4.8 km/h
530 27-12-2020 20:05:00 4.1 C 6.02 g/m*3 4.1 C 3.2 km/h
531 27-12-2020 20:10:00 4.1 C 6.02 g/m*3 2.05 C 8.1 km/h
532 27-12-2020 20:15:00 4.1 C 6.02 g/m*3 2.05 C 8.1 km/h
533 27-12-2020 20:20:00 4.1 C 6.02 g/m*3 2.55 C 6.4 km/h
534 27-12-2020 20:25:00 4.1 C 6.02 g/m*3 4.1 C 3.2 km/h
535 27-12-2020 20:30:00 4.1 C 6.02 g/m*3 4.1 C 4.8 km/h
536 27-12-2020 20:35:00 4.1 C 6.02 g/m*3 4.1 C 3.2 km/h
537 27-12-2020 20:40:00 4.1 C 6.02 g/m*3 4.1 C 4.8 km/h
538 27-12-2020 20:45:00 4.1 C 6.02 g/m*3 4.1 C 4.8 km/h
539 27-12-2020 20:50:00 4.1 C 6.02 g/m*3 4.1 C 3.2 km/h
540 27-12-2020 20:55:00 4.1 C 6.02 g/m*3 2.55 C 6.4 km/h
541 27-12-2020 21:00:00 4.1 C 6.08 g/m*3 4.1 C 4.8 km/h
542 27-12-2020 21:05:00 4.1 C 6.08 g/m*3 4.1 C 3.2 km/h
543 27-12-2020 21:10:00 4.1 C 6.08 g/m*3 4.1 C 4.8 km/h
544 27-12-2020 21:15:00 4.1 C 6.02 g/m*3 1 C 12.9 km/h
545 27-12-2020 21:20:00 4.2 C 6.06 g/m*3 2.67 C 6.4 km/h
546 27-12-2020 21:25:00 4.1 C 6.02 g/m*3 4.1 C 4.8 km/h
547 27-12-2020 21:30:00 4.2 C 6.06 g/m*3 2.67 C 6.4 km/h
548 27-12-2020 21:35:00 4.1 C 6.02 g/m*3 2.05 C 8.1 km/h
549 27-12-2020 21:40:00 4.1 C 6.02 g/m*3 4.1 C 3.2 km/h
550 27-12-2020 21:45:00 4.1 C 6.02 g/m*3 4.1 C 4.8 km/h
Sensor: Nr:Datum:Temp:Abs-Feuchte:Windchill:Wind:
Aussen-T/F 551 27-12-2020 21:50:00 4.2 C 6.06 g/m*3 4.2 C 1.6 km/h
552 27-12-2020 21:55:00 4.2 C 6.06 g/m*3 4.2 C 1.6 km/h
553 27-12-2020 22:00:00 4.1 C 6.08 g/m*3 4.1 C 4.8 km/h
554 27-12-2020 22:05:00 4.1 C 6.08 g/m*3 4.1 C 1.6 km/h
555 27-12-2020 22:10:00 4.1 C 6.08 g/m*3 4.1 C 1.6 km/h
556 27-12-2020 22:15:00 4.1 C 6.08 g/m*3 4.1 C 1.6 km/h
557 27-12-2020 22:20:00 4.1 C 6.08 g/m*3 4.1 C 0 km/h
558 27-12-2020 22:25:00 4.1 C 6.08 g/m*3 4.1 C 0 km/h
559 27-12-2020 22:30:00 4.1 C 6.08 g/m*3 4.1 C 0 km/h
560 27-12-2020 22:35:00 4.1 C 6.08 g/m*3 4.1 C 0 km/h
561 27-12-2020 22:40:00 4.1 C 6.08 g/m*3 4.1 C 0 km/h
562 27-12-2020 22:45:00 4.1 C 6.08 g/m*3 4.1 C 3.2 km/h
563 27-12-2020 22:50:00 4.1 C 6.08 g/m*3 4.1 C 1.6 km/h
564 27-12-2020 22:55:00 4.1 C 6.08 g/m*3 4.1 C 3.2 km/h
565 27-12-2020 23:00:00 4.1 C 6.08 g/m*3 4.1 C 0 km/h
566 27-12-2020 23:05:00 4.1 C 6.08 g/m*3 4.1 C 4.8 km/h
567 27-12-2020 23:10:00 4.1 C 6.08 g/m*3 4.1 C 4.8 km/h
568 27-12-2020 23:15:00 4.1 C 6.08 g/m*3 4.1 C 3.2 km/h
569 27-12-2020 23:20:00 4.1 C 6.08 g/m*3 4.1 C 0 km/h
570 27-12-2020 23:25:00 4.1 C 6.14 g/m*3 4.1 C 1.6 km/h
571 27-12-2020 23:30:00 4.1 C 6.14 g/m*3 4.1 C 1.6 km/h
572 27-12-2020 23:35:00 4.1 C 6.14 g/m*3 4.1 C 0 km/h
573 27-12-2020 23:40:00 4.2 C 6.19 g/m*3 4.2 C 3.2 km/h
574 27-12-2020 23:45:00 4.1 C 6.14 g/m*3 4.1 C 0 km/h
575 27-12-2020 23:50:00 4.1 C 6.14 g/m*3 4.1 C 0 km/h
Sensor: Nr:Datum:Temp:Abs-Feuchte:Windchill:Wind:
Aussen-T/F 576 27-12-2020 23:55:00 4.1 C 6.14 g/m*3 4.1 C 0 km/h
577 28-12-2020 00:00:00 4.1 C 6.14 g/m*3 4.1 C 0 km/h
578 28-12-2020 00:05:00 4.1 C 6.14 g/m*3 4.1 C 0 km/h
579 28-12-2020 00:10:00 4.1 C 6.14 g/m*3 4.1 C 3.2 km/h
580 28-12-2020 00:15:00 4.1 C 6.14 g/m*3 4.1 C 0 km/h
581 28-12-2020 00:20:00 4.1 C 6.14 g/m*3 4.1 C 0 km/h
582 28-12-2020 00:25:00 4.1 C 6.14 g/m*3 4.1 C 4.8 km/h
583 28-12-2020 00:30:00 4.2 C 6.19 g/m*3 4.2 C 4.8 km/h
584 28-12-2020 00:35:00 4.2 C 6.19 g/m*3 4.2 C 0 km/h
585 28-12-2020 00:40:00 4.2 C 6.19 g/m*3 4.2 C 3.2 km/h
586 28-12-2020 00:45:00 4.2 C 6.19 g/m*3 4.2 C 3.2 km/h
587 28-12-2020 00:50:00 4.2 C 6.19 g/m*3 4.2 C 0 km/h
588 28-12-2020 00:55:00 4.2 C 6.19 g/m*3 4.2 C 0 km/h
589 28-12-2020 01:00:00 4.2 C 6.19 g/m*3 4.2 C 3.2 km/h
590 28-12-2020 01:05:00 4.2 C 6.19 g/m*3 4.2 C 0 km/h
591 28-12-2020 01:10:00 4.2 C 6.19 g/m*3 4.2 C 0 km/h
592 28-12-2020 01:15:00 4.2 C 6.19 g/m*3 4.2 C 1.6 km/h
593 28-12-2020 01:20:00 4.2 C 6.19 g/m*3 4.2 C 0 km/h
594 28-12-2020 01:25:00 4.2 C 6.19 g/m*3 4.2 C 0 km/h
595 28-12-2020 01:30:00 4.1 C 6.14 g/m*3 4.1 C 0 km/h
596 28-12-2020 01:35:00 4.1 C 6.14 g/m*3 4.1 C 0 km/h
597 28-12-2020 01:40:00 4.1 C 6.14 g/m*3 4.1 C 0 km/h
598 28-12-2020 01:45:00 4 C 6.1 g/m*3 4 C 0 km/h
599 28-12-2020 01:50:00 4 C 6.1 g/m*3 4 C 0 km/h
600 28-12-2020 01:55:00 3.9 C 6.06 g/m*3 3.9 C 3.2 km/h
Sensor: Nr:Datum:Temp:Abs-Feuchte:Windchill:Wind:
Aussen-T/F 601 28-12-2020 02:00:00 3.9 C 6.06 g/m*3 3.9 C 0 km/h
602 28-12-2020 02:05:00 3.9 C 6.06 g/m*3 3.9 C 1.6 km/h
603 28-12-2020 02:10:00 3.9 C 6.06 g/m*3 3.9 C 0 km/h
604 28-12-2020 02:15:00 3.8 C 6.02 g/m*3 3.8 C 0 km/h
605 28-12-2020 02:20:00 3.8 C 6.02 g/m*3 3.8 C 0 km/h
606 28-12-2020 02:25:00 3.8 C 6.02 g/m*3 3.8 C 0 km/h
607 28-12-2020 02:30:00 3.8 C 6.02 g/m*3 3.8 C 0 km/h
608 28-12-2020 02:35:00 3.7 C 5.98 g/m*3 3.7 C 0 km/h
609 28-12-2020 02:40:00 3.7 C 5.98 g/m*3 3.7 C 3.2 km/h
610 28-12-2020 02:45:00 3.7 C 5.98 g/m*3 3.7 C 0 km/h
611 28-12-2020 02:50:00 3.7 C 5.98 g/m*3 3.7 C 1.6 km/h
612 28-12-2020 02:55:00 3.7 C 5.98 g/m*3 3.7 C 0 km/h
613 28-12-2020 03:00:00 3.7 C 5.98 g/m*3 3.7 C 0 km/h
614 28-12-2020 03:05:00 3.6 C 5.94 g/m*3 3.6 C 0 km/h
615 28-12-2020 03:10:00 3.6 C 5.94 g/m*3 3.6 C 0 km/h
616 28-12-2020 03:15:00 3.6 C 5.94 g/m*3 3.6 C 0 km/h
617 28-12-2020 03:20:00 3.6 C 5.94 g/m*3 3.6 C 0 km/h
618 28-12-2020 03:25:00 3.6 C 5.94 g/m*3 3.6 C 0 km/h
619 28-12-2020 03:30:00 3.6 C 5.94 g/m*3 3.6 C 0 km/h
620 28-12-2020 03:35:00 3.7 C 5.98 g/m*3 3.7 C 4.8 km/h
621 28-12-2020 03:40:00 3.7 C 6.04 g/m*3 3.7 C 4.8 km/h
622 28-12-2020 03:45:00 3.7 C 6.04 g/m*3 3.7 C 3.2 km/h
623 28-12-2020 03:50:00 3.8 C 6.09 g/m*3 3.8 C 0 km/h
624 28-12-2020 03:55:00 3.8 C 6.09 g/m*3 3.8 C 4.8 km/h
625 28-12-2020 04:00:00 3.8 C 6.09 g/m*3 3.8 C 1.6 km/h
Sensor: Nr:Datum:Temp:Abs-Feuchte:Windchill:Wind:
Aussen-T/F 626 28-12-2020 04:05:00 3.8 C 6.09 g/m*3 3.8 C 0 km/h
627 28-12-2020 04:10:00 3.7 C 6.04 g/m*3 3.7 C 0 km/h
628 28-12-2020 04:15:00 3.7 C 6.04 g/m*3 3.7 C 0 km/h
629 28-12-2020 04:20:00 3.7 C 6.04 g/m*3 3.7 C 0 km/h
630 28-12-2020 04:25:00 3.7 C 6.04 g/m*3 1.58 C 8.1 km/h
631 28-12-2020 04:30:00 3.7 C 6.04 g/m*3 1.58 C 8.1 km/h
632 28-12-2020 04:35:00 3.7 C 6.04 g/m*3 3.7 C 1.6 km/h
633 28-12-2020 04:40:00 3.7 C 5.98 g/m*3 3.7 C 0 km/h
634 28-12-2020 04:45:00 3.7 C 5.98 g/m*3 3.7 C 0 km/h
635 28-12-2020 04:50:00 3.7 C 5.98 g/m*3 3.7 C 0 km/h
636 28-12-2020 04:55:00 3.8 C 6.09 g/m*3 3.8 C 4.8 km/h
637 28-12-2020 05:00:00 3.8 C 6.09 g/m*3 3.8 C 3.2 km/h
638 28-12-2020 05:05:00 3.8 C 6.09 g/m*3 3.8 C 3.2 km/h
639 28-12-2020 05:10:00 3.8 C 6.09 g/m*3 3.8 C 0 km/h
640 28-12-2020 05:15:00 3.8 C 6.09 g/m*3 3.8 C 0 km/h
641 28-12-2020 05:20:00 3.9 C 6.13 g/m*3 3.9 C 0 km/h
642 28-12-2020 05:25:00 3.9 C 6.13 g/m*3 3.9 C 0 km/h
643 28-12-2020 05:30:00 3.9 C 6.13 g/m*3 3.9 C 0 km/h
644 28-12-2020 05:35:00 3.9 C 6.13 g/m*3 3.9 C 0 km/h
645 28-12-2020 05:40:00 3.9 C 6.13 g/m*3 3.9 C 0 km/h
646 28-12-2020 05:45:00 3.9 C 6.13 g/m*3 3.9 C 1.6 km/h
647 28-12-2020 05:50:00 3.9 C 6.13 g/m*3 3.9 C 1.6 km/h
648 28-12-2020 05:55:00 3.9 C 6.13 g/m*3 3.9 C 0 km/h
649 28-12-2020 06:00:00 3.9 C 6.13 g/m*3 3.9 C 0 km/h
650 28-12-2020 06:05:00 3.9 C 6.13 g/m*3 3.9 C 4.8 km/h
Sensor: Nr:Datum:Temp:Abs-Feuchte:Windchill:Wind:
Aussen-T/F 651 28-12-2020 06:10:00 3.9 C 6.13 g/m*3 3.9 C 0 km/h
652 28-12-2020 06:15:00 3.8 C 6.09 g/m*3 3.8 C 0 km/h
653 28-12-2020 06:20:00 3.8 C 6.09 g/m*3 3.8 C 4.8 km/h
654 28-12-2020 06:25:00 3.8 C 6.09 g/m*3 3.8 C 1.6 km/h
655 28-12-2020 06:30:00 3.8 C 6.09 g/m*3 3.8 C 0 km/h
656 28-12-2020 06:35:00 3.7 C 6.04 g/m*3 3.7 C 0 km/h
657 28-12-2020 06:40:00 3.6 C 5.94 g/m*3 3.6 C 0 km/h
658 28-12-2020 06:45:00 3.6 C 5.94 g/m*3 3.6 C 1.6 km/h
659 28-12-2020 06:50:00 3.4 C 5.86 g/m*3 3.4 C 0 km/h
660 28-12-2020 06:55:00 3.4 C 5.86 g/m*3 3.4 C 0 km/h
661 28-12-2020 07:00:00 3.4 C 5.86 g/m*3 3.4 C 0 km/h
662 28-12-2020 07:05:00 3.4 C 5.86 g/m*3 3.4 C 0 km/h
663 28-12-2020 07:10:00 3.4 C 5.92 g/m*3 3.4 C 0 km/h
664 28-12-2020 07:15:00 3.4 C 5.86 g/m*3 3.4 C 0 km/h
665 28-12-2020 07:20:00 3.3 C 5.82 g/m*3 3.3 C 0 km/h
666 28-12-2020 07:25:00 3.1 C 5.75 g/m*3 3.1 C 1.6 km/h
667 28-12-2020 07:30:00 2.9 C 5.67 g/m*3 2.9 C 3.2 km/h
668 28-12-2020 07:35:00 2.9 C 5.67 g/m*3 2.9 C 3.2 km/h
669 28-12-2020 07:40:00 2.8 C 5.63 g/m*3 2.8 C 0 km/h
670 28-12-2020 07:45:00 2.8 C 5.63 g/m*3 2.8 C 0 km/h
671 28-12-2020 07:50:00 2.8 C 5.63 g/m*3 2.8 C 0 km/h
672 28-12-2020 07:55:00 2.8 C 5.63 g/m*3 2.8 C 1.6 km/h
673 28-12-2020 08:00:00 2.8 C 5.63 g/m*3 2.8 C 0 km/h
674 28-12-2020 08:05:00 2.6 C 5.56 g/m*3 2.6 C 1.6 km/h
675 28-12-2020 08:10:00 2.4 C 5.48 g/m*3 2.4 C 1.6 km/h
Sensor: Nr:Datum:Temp:Abs-Feuchte:Windchill:Wind:
Aussen-T/F 676 28-12-2020 08:15:00 2.2 C 5.41 g/m*3 2.2 C 1.6 km/h
677 28-12-2020 08:20:00 2.1 C 5.37 g/m*3 2.1 C 4.8 km/h
678 28-12-2020 08:25:00 1.9 C 5.3 g/m*3 1.9 C 1.6 km/h
679 28-12-2020 08:30:00 1.8 C 5.26 g/m*3 1.8 C 1.6 km/h
680 28-12-2020 08:35:00 1.7 C 5.23 g/m*3 1.7 C 1.6 km/h
681 28-12-2020 08:40:00 1.6 C 5.19 g/m*3 1.6 C 3.2 km/h
682 28-12-2020 08:45:00 1.6 C 5.19 g/m*3 1.6 C 3.2 km/h
683 28-12-2020 08:50:00 1.6 C 5.19 g/m*3 1.6 C 4.8 km/h
684 28-12-2020 08:55:00 1.7 C 5.23 g/m*3 1.7 C 3.2 km/h
685 28-12-2020 09:00:00 1.8 C 5.32 g/m*3 1.8 C 1.6 km/h
686 28-12-2020 09:05:00 1.9 C 5.35 g/m*3 1.9 C 1.6 km/h
687 28-12-2020 09:10:00 2.1 C 5.43 g/m*3 2.1 C 3.2 km/h
688 28-12-2020 09:15:00 2.2 C 5.46 g/m*3 2.2 C 3.2 km/h
689 28-12-2020 09:20:00 2.4 C 5.54 g/m*3 2.4 C 1.6 km/h
690 28-12-2020 09:25:00 2.5 C 5.58 g/m*3 2.5 C 0 km/h
691 28-12-2020 09:30:00 2.7 C 5.65 g/m*3 2.7 C 0 km/h
692 28-12-2020 09:35:00 2.8 C 5.69 g/m*3 2.8 C 0 km/h
693 28-12-2020 09:40:00 2.9 C 5.73 g/m*3 2.9 C 0 km/h
694 28-12-2020 09:45:00 3 C 5.77 g/m*3 3 C 0 km/h
695 28-12-2020 09:50:00 3.1 C 5.81 g/m*3 3.1 C 0 km/h
696 28-12-2020 09:55:00 3.2 C 5.85 g/m*3 3.2 C 0 km/h
697 28-12-2020 10:00:00 3.3 C 5.88 g/m*3 3.3 C 0 km/h
698 28-12-2020 10:05:00 3.4 C 5.92 g/m*3 3.4 C 0 km/h
699 28-12-2020 10:10:00 3.4 C 5.92 g/m*3 3.4 C 0 km/h
700 28-12-2020 10:15:00 3.6 C 6 g/m*3 3.6 C 0 km/h
Sensor: Nr:Datum:Temp:Abs-Feuchte:Windchill:Wind:
Aussen-T/F 701 28-12-2020 10:20:00 3.7 C 6.04 g/m*3 3.7 C 0 km/h
702 28-12-2020 10:25:00 3.8 C 6.09 g/m*3 3.8 C 0 km/h
703 28-12-2020 10:30:00 3.8 C 6.09 g/m*3 3.8 C 0 km/h
704 28-12-2020 10:35:00 3.9 C 6.13 g/m*3 3.9 C 0 km/h
705 28-12-2020 10:40:00 4.1 C 6.21 g/m*3 4.1 C 0 km/h
706 28-12-2020 10:45:00 4.1 C 6.21 g/m*3 4.1 C 0 km/h
707 28-12-2020 10:50:00 4.2 C 6.25 g/m*3 4.2 C 0 km/h
708 28-12-2020 10:55:00 4.3 C 6.29 g/m*3 4.3 C 0 km/h
709 28-12-2020 11:00:00 4.4 C 6.33 g/m*3 4.4 C 0 km/h
710 28-12-2020 11:05:00 4.4 C 6.33 g/m*3 4.4 C 0 km/h
711 28-12-2020 11:10:00 4.4 C 6.33 g/m*3 4.4 C 0 km/h
712 28-12-2020 11:15:00 4.5 C 6.38 g/m*3 4.5 C 0 km/h
713 28-12-2020 11:20:00 4.6 C 6.42 g/m*3 4.6 C 0 km/h
714 28-12-2020 11:25:00 4.6 C 6.42 g/m*3 4.6 C 0 km/h
715 28-12-2020 11:30:00 4.7 C 6.46 g/m*3 4.7 C 0 km/h
716 28-12-2020 11:35:00 4.7 C 6.46 g/m*3 4.7 C 3.2 km/h
717 28-12-2020 11:40:00 4.7 C 6.46 g/m*3 4.7 C 0 km/h
718 28-12-2020 11:45:00 4.7 C 6.46 g/m*3 4.7 C 0 km/h
719 28-12-2020 11:50:00 4.7 C 6.46 g/m*3 4.7 C 0 km/h
720 28-12-2020 11:55:00 4.7 C 6.46 g/m*3 4.7 C 4.8 km/h
721 28-12-2020 12:00:00 4.7 C 6.39 g/m*3 4.7 C 4.8 km/h
722 28-12-2020 12:05:00 4.8 C 6.44 g/m*3 4.8 C 1.6 km/h
723 28-12-2020 12:10:00 4.8 C 6.44 g/m*3 4.8 C 3.2 km/h
724 28-12-2020 12:15:00 4.9 C 6.48 g/m*3 4.9 C 1.6 km/h
725 28-12-2020 12:20:00 5 C 6.52 g/m*3 5 C 4.8 km/h
Sensor: Nr:Datum:Temp:Abs-Feuchte:Windchill:Wind:
Aussen-T/F 726 28-12-2020 12:25:00 5 C 6.46 g/m*3 5 C 3.2 km/h
727 28-12-2020 12:30:00 5.1 C 6.5 g/m*3 3.71 C 6.4 km/h
728 28-12-2020 12:35:00 5.2 C 6.54 g/m*3 5.2 C 3.2 km/h
729 28-12-2020 12:40:00 5.2 C 6.54 g/m*3 5.2 C 3.2 km/h
730 28-12-2020 12:45:00 5.2 C 6.54 g/m*3 5.2 C 1.6 km/h
731 28-12-2020 12:50:00 5.3 C 6.52 g/m*3 5.3 C 4.8 km/h
732 28-12-2020 12:55:00 5.3 C 6.52 g/m*3 5.3 C 1.6 km/h
733 28-12-2020 13:00:00 5.4 C 6.56 g/m*3 5.4 C 0 km/h
734 28-12-2020 13:05:00 5.4 C 6.56 g/m*3 5.4 C 4.8 km/h
735 28-12-2020 13:10:00 5.4 C 6.49 g/m*3 5.4 C 1.6 km/h
736 28-12-2020 13:15:00 5.5 C 6.53 g/m*3 5.5 C 1.6 km/h
737 28-12-2020 13:20:00 5.6 C 6.57 g/m*3 5.6 C 0 km/h
738 28-12-2020 13:25:00 5.6 C 6.57 g/m*3 5.6 C 0 km/h
739 28-12-2020 13:30:00 5.7 C 6.62 g/m*3 5.7 C 0 km/h
740 28-12-2020 13:35:00 5.7 C 6.62 g/m*3 5.7 C 0 km/h
741 28-12-2020 13:40:00 5.7 C 6.62 g/m*3 5.7 C 0 km/h
742 28-12-2020 13:45:00 5.7 C 6.62 g/m*3 5.7 C 1.6 km/h
743 28-12-2020 13:50:00 5.7 C 6.62 g/m*3 5.7 C 0 km/h
744 28-12-2020 13:55:00 5.7 C 6.69 g/m*3 5.7 C 0 km/h
745 28-12-2020 14:00:00 5.7 C 6.69 g/m*3 5.7 C 0 km/h
746 28-12-2020 14:05:00 5.7 C 6.69 g/m*3 5.7 C 0 km/h
747 28-12-2020 14:10:00 5.8 C 6.73 g/m*3 5.8 C 0 km/h
748 28-12-2020 14:15:00 5.8 C 6.73 g/m*3 5.8 C 0 km/h
749 28-12-2020 14:20:00 5.8 C 6.73 g/m*3 5.8 C 0 km/h
750 28-12-2020 14:25:00 5.8 C 6.73 g/m*3 5.8 C 1.6 km/h
Sensor: Nr:Datum:Temp:Abs-Feuchte:Windchill:Wind:
Aussen-T/F 751 28-12-2020 14:30:00 5.7 C 6.69 g/m*3 5.7 C 0 km/h
752 28-12-2020 14:35:00 5.7 C 6.69 g/m*3 5.7 C 3.2 km/h
753 28-12-2020 14:40:00 5.6 C 6.65 g/m*3 5.6 C 3.2 km/h
754 28-12-2020 14:45:00 5.6 C 6.65 g/m*3 5.6 C 3.2 km/h
755 28-12-2020 14:50:00 5.5 C 6.6 g/m*3 5.5 C 1.6 km/h
756 28-12-2020 14:55:00 5.4 C 6.56 g/m*3 5.4 C 0 km/h
757 28-12-2020 15:00:00 5.4 C 6.56 g/m*3 5.4 C 1.6 km/h
758 28-12-2020 15:05:00 5.4 C 6.56 g/m*3 5.4 C 1.6 km/h
759 28-12-2020 15:10:00 5.4 C 6.56 g/m*3 5.4 C 0 km/h
760 28-12-2020 15:15:00 5.3 C 6.52 g/m*3 3.94 C 6.4 km/h
761 28-12-2020 15:20:00 5.3 C 6.52 g/m*3 5.3 C 4.8 km/h
762 28-12-2020 15:25:00 5.2 C 6.47 g/m*3 2.63 C 11.3 km/h
763 28-12-2020 15:30:00 5.1 C 6.43 g/m*3 2.51 C 11.3 km/h
764 28-12-2020 15:35:00 5 C 6.39 g/m*3 5 C 1.6 km/h
765 28-12-2020 15:40:00 5 C 6.39 g/m*3 5 C 0 km/h
766 28-12-2020 15:45:00 4.9 C 6.35 g/m*3 4.9 C 0 km/h
767 28-12-2020 15:50:00 4.9 C 6.35 g/m*3 4.9 C 0 km/h
768 28-12-2020 15:55:00 4.9 C 6.35 g/m*3 4.9 C 3.2 km/h
769 28-12-2020 16:00:00 4.9 C 6.35 g/m*3 4.9 C 0 km/h
770 28-12-2020 16:05:00 4.9 C 6.41 g/m*3 4.9 C 0 km/h
771 28-12-2020 16:10:00 4.9 C 6.41 g/m*3 4.9 C 1.6 km/h
772 28-12-2020 16:15:00 4.9 C 6.41 g/m*3 4.9 C 0 km/h
773 28-12-2020 16:20:00 4.8 C 6.37 g/m*3 4.8 C 4.8 km/h
774 28-12-2020 16:25:00 4.8 C 6.3 g/m*3 4.8 C 1.6 km/h
775 28-12-2020 16:30:00 4.7 C 6.26 g/m*3 3.25 C 6.4 km/h
Sensor: Nr:Datum:Temp:Abs-Feuchte:Windchill:Wind:
Aussen-T/F 776 28-12-2020 16:35:00 4.7 C 6.26 g/m*3 2.37 C 9.7 km/h
777 28-12-2020 16:40:00 4.6 C 6.22 g/m*3 4.6 C 1.6 km/h
778 28-12-2020 16:45:00 4.5 C 6.18 g/m*3 4.5 C 4.8 km/h
779 28-12-2020 16:50:00 4.3 C 6.1 g/m*3 2.78 C 6.4 km/h
780 28-12-2020 16:55:00 4.2 C 6.06 g/m*3 4.2 C 4.8 km/h
781 28-12-2020 17:00:00 4.2 C 6.06 g/m*3 4.2 C 4.8 km/h
782 28-12-2020 17:05:00 4.1 C 6.02 g/m*3 4.1 C 3.2 km/h
783 28-12-2020 17:10:00 4.1 C 6.02 g/m*3 4.1 C 1.6 km/h
784 28-12-2020 17:15:00 4.1 C 6.02 g/m*3 4.1 C 0 km/h
785 28-12-2020 17:20:00 4.1 C 6.08 g/m*3 4.1 C 0 km/h
786 28-12-2020 17:25:00 4 C 6.04 g/m*3 4 C 0 km/h
787 28-12-2020 17:30:00 4 C 6.04 g/m*3 4 C 0 km/h
788 28-12-2020 17:35:00 4 C 6.04 g/m*3 4 C 0 km/h
789 28-12-2020 17:40:00 3.9 C 6 g/m*3 3.9 C 0 km/h
790 28-12-2020 17:45:00 3.9 C 6 g/m*3 3.9 C 0 km/h
791 28-12-2020 17:50:00 3.9 C 6 g/m*3 3.9 C 0 km/h
792 28-12-2020 17:55:00 3.9 C 6 g/m*3 3.9 C 0 km/h
793 28-12-2020 18:00:00 3.9 C 6 g/m*3 3.9 C 0 km/h
794 28-12-2020 18:05:00 3.9 C 6 g/m*3 3.9 C 1.6 km/h
795 28-12-2020 18:10:00 3.9 C 6 g/m*3 3.9 C 0 km/h
796 28-12-2020 18:15:00 3.9 C 6 g/m*3 3.9 C 1.6 km/h
797 28-12-2020 18:20:00 3.9 C 6 g/m*3 3.9 C 0 km/h
798 28-12-2020 18:25:00 3.9 C 6.06 g/m*3 3.9 C 0 km/h
799 28-12-2020 18:30:00 3.9 C 6.06 g/m*3 3.9 C 0 km/h
800 28-12-2020 18:35:00 3.9 C 6.06 g/m*3 3.9 C 1.6 km/h
Sensor: Nr:Datum:Temp:Abs-Feuchte:Windchill:Wind:
Aussen-T/F 801 28-12-2020 18:40:00 3.8 C 6.02 g/m*3 3.8 C 0 km/h
802 28-12-2020 18:45:00 3.7 C 5.92 g/m*3 3.7 C 0 km/h
803 28-12-2020 18:50:00 3.6 C 5.88 g/m*3 3.6 C 0 km/h
804 28-12-2020 18:55:00 3.5 C 5.84 g/m*3 3.5 C 0 km/h
805 28-12-2020 19:00:00 3.4 C 5.8 g/m*3 3.4 C 0 km/h
806 28-12-2020 19:05:00 3.4 C 5.8 g/m*3 3.4 C 0 km/h
807 28-12-2020 19:10:00 3.3 C 5.76 g/m*3 3.3 C 0 km/h
808 28-12-2020 19:15:00 3.2 C 5.72 g/m*3 3.2 C 4.8 km/h
809 28-12-2020 19:20:00 3.2 C 5.72 g/m*3 3.2 C 4.8 km/h
810 28-12-2020 19:25:00 3.2 C 5.79 g/m*3 3.2 C 4.8 km/h
811 28-12-2020 19:30:00 3.3 C 5.82 g/m*3 3.3 C 3.2 km/h
812 28-12-2020 19:35:00 3.3 C 5.82 g/m*3 3.3 C 1.6 km/h
813 28-12-2020 19:40:00 3.3 C 5.82 g/m*3 3.3 C 1.6 km/h
814 28-12-2020 19:45:00 3.2 C 5.79 g/m*3 3.2 C 0 km/h
815 28-12-2020 19:50:00 3 C 5.65 g/m*3 3 C 0 km/h
816 28-12-2020 19:55:00 2.8 C 5.57 g/m*3 2.8 C 0 km/h
817 28-12-2020 20:00:00 2.6 C 5.5 g/m*3 2.6 C 3.2 km/h
818 28-12-2020 20:05:00 2.3 C 5.39 g/m*3 2.3 C 3.2 km/h
819 28-12-2020 20:10:00 2.1 C 5.26 g/m*3 2.1 C 3.2 km/h
820 28-12-2020 20:15:00 1.8 C 5.21 g/m*3 1.8 C 3.2 km/h
821 28-12-2020 20:20:00 1.7 C 5.17 g/m*3 1.7 C 3.2 km/h
822 28-12-2020 20:25:00 1.6 C 5.14 g/m*3 1.6 C 4.8 km/h
823 28-12-2020 20:30:00 1.6 C 5.14 g/m*3 1.6 C 3.2 km/h
824 28-12-2020 20:35:00 1.7 C 5.17 g/m*3 1.7 C 0 km/h
825 28-12-2020 20:40:00 1.8 C 5.26 g/m*3 1.8 C 0 km/h
Sensor: Nr:Datum:Temp:Abs-Feuchte:Windchill:Wind:
Aussen-T/F 826 28-12-2020 20:45:00 1.9 C 5.3 g/m*3 1.9 C 0 km/h
827 28-12-2020 20:50:00 2.1 C 5.37 g/m*3 2.1 C 0 km/h
828 28-12-2020 20:55:00 2.2 C 5.41 g/m*3 2.2 C 0 km/h
829 28-12-2020 21:00:00 2.3 C 5.44 g/m*3 2.3 C 0 km/h
830 28-12-2020 21:05:00 2.5 C 5.52 g/m*3 2.5 C 0 km/h
831 28-12-2020 21:10:00 2.6 C 5.56 g/m*3 2.6 C 0 km/h
832 28-12-2020 21:15:00 2.6 C 5.56 g/m*3 2.6 C 0 km/h
833 28-12-2020 21:20:00 2.7 C 5.59 g/m*3 2.7 C 0 km/h
834 28-12-2020 21:25:00 2.7 C 5.59 g/m*3 2.7 C 0 km/h
835 28-12-2020 21:30:00 2.7 C 5.59 g/m*3 2.7 C 0 km/h
836 28-12-2020 21:35:00 2.8 C 5.69 g/m*3 2.8 C 0 km/h
837 28-12-2020 21:40:00 2.8 C 5.63 g/m*3 2.8 C 0 km/h
838 28-12-2020 21:45:00 2.7 C 5.59 g/m*3 2.7 C 0 km/h
839 28-12-2020 21:50:00 2.7 C 5.59 g/m*3 2.7 C 0 km/h
840 28-12-2020 21:55:00 2.6 C 5.56 g/m*3 2.6 C 0 km/h
841 28-12-2020 22:00:00 2.3 C 5.44 g/m*3 2.3 C 0 km/h
842 28-12-2020 22:05:00 2.1 C 5.37 g/m*3 2.1 C 3.2 km/h
843 28-12-2020 22:10:00 1.8 C 5.26 g/m*3 1.8 C 3.2 km/h
844 28-12-2020 22:15:00 1.7 C 5.17 g/m*3 1.7 C 3.2 km/h
845 28-12-2020 22:20:00 1.5 C 5.16 g/m*3 1.5 C 4.8 km/h
846 28-12-2020 22:25:00 1.4 C 5.07 g/m*3 1.4 C 4.8 km/h
847 28-12-2020 22:30:00 1.4 C 5.12 g/m*3 1.4 C 1.6 km/h
848 28-12-2020 22:35:00 1.4 C 5.12 g/m*3 1.4 C 4.8 km/h
849 28-12-2020 22:40:00 1.4 C 5.12 g/m*3 1.4 C 0 km/h
850 28-12-2020 22:45:00 1.5 C 5.16 g/m*3 1.5 C 0 km/h
Sensor: Nr:Datum:Temp:Abs-Feuchte:Windchill:Wind:
Aussen-T/F 851 28-12-2020 22:50:00 1.6 C 5.19 g/m*3 1.6 C 0 km/h
852 28-12-2020 22:55:00 1.6 C 5.19 g/m*3 1.6 C 0 km/h
853 28-12-2020 23:00:00 1.6 C 5.19 g/m*3 1.6 C 0 km/h
854 28-12-2020 23:05:00 1.5 C 5.16 g/m*3 1.5 C 0 km/h
855 28-12-2020 23:10:00 1.4 C 5.12 g/m*3 1.4 C 0 km/h
856 28-12-2020 23:15:00 1.4 C 5.12 g/m*3 1.4 C 0 km/h
857 28-12-2020 23:20:00 1.4 C 5.12 g/m*3 1.4 C 0 km/h
858 28-12-2020 23:25:00 1.4 C 5.12 g/m*3 1.4 C 4.8 km/h
859 28-12-2020 23:30:00 1.6 C 5.19 g/m*3 1.6 C 4.8 km/h
860 28-12-2020 23:35:00 1.7 C 5.23 g/m*3 -0.22 C 6.4 km/h
861 28-12-2020 23:40:00 1.9 C 5.35 g/m*3 1.9 C 3.2 km/h
862 28-12-2020 23:45:00 2.1 C 5.43 g/m*3 2.1 C 1.6 km/h
863 28-12-2020 23:50:00 2.2 C 5.46 g/m*3 2.2 C 3.2 km/h
864 28-12-2020 23:55:00 2.3 C 5.5 g/m*3 2.3 C 1.6 km/h

Legende:
   Min
   Max


Maximal/Minimal-Werte vom 23.02.2003 - 29.06.2020

Sensor Min Max Avg
Temp
(Aussen-T/F)
-16.4 °C
20-12-2009  01:30:01
40.4 °C
25-07-2019  16:20:00
11.16 °C

Die Daten stammen von einer Davis Vantage Pro 2 Wetter-Station und werden unter Linux mit der Software wview2wettercgi und aufbereitet. Alle Angaben erfolgen ohne Gewähr für ihre Vollständigkeit oder Richtigkeit.
Kontakt: Rainer Krienke krienke@uni-koblenz.de . Meine Webseiten an der Uni Koblenz oder privat.
Version: $Revision: 0.78 $